CheckWX is a tool to help pilots better visualize weather data.  It is not intended as a substitute for an official pre-flight weather briefing.

12:35:24 UTC

KBIS METAR
Bismarck Municipal Airport
Bismarck, North Dakota, USA
Current

43 mins ago

KBIS 041152Z 06009KT 10SM FEW075 BKN095 M12/M16 A3011 RMK AO2 SLP227 T11171156 11100 21133 56016
Observed
Apr-4 @ 11:52 UTC
Wind
  • 060° at 9 KTS
Visibility
Flight Rules
VFR
Cloud Levels
  • Few at 7,500' AGL
  • Broken at 9,500' AGL
Temperature
-12°C / 10°F
Dewpoint
-16°C / 3°F
Humidity
72%
Altimeter
30.11" Hg
Pressure
1019.62 hPa
Previous

2 hours ago

KBIS 041052Z 08009KT 10SM CLR M13/M17 A3012 RMK AO2 SLP232 T11331167
Observed
Apr-4 @ 10:52 UTC
Wind
  • 080° at 9 KTS
Visibility
Flight Rules
VFR
Cloud Levels
  • Clear skies
Temperature
-13°C / 9°F
Dewpoint
-17°C / 1°F
Humidity
72%
Altimeter
30.12" Hg
Pressure
1020.02 hPa
Previous

3 hours ago

KBIS 040952Z AUTO 07007KT 10SM CLR M13/M15 A3014 RMK AO2 SLP237 T11281150
Observed
Apr-4 @ 09:52 UTC
Wind
  • 070° at 7 KTS
Visibility
Flight Rules
VFR
Cloud Levels
  • Clear skies
Temperature
-13°C / 9°F
Dewpoint
-15°C / 5°F
Humidity
85%
Altimeter
30.14" Hg
Pressure
1020.62 hPa